メインページ
METAR-TAF:

METAR-TAF

空港 :

仙台, 日本

仙台空港

緯度: 38-08N, 経度: 140-55E, 海抜: 1m

現時点の気象観測

当レポートは44分前の23:00(UTC)に作成
無風
気温 -1°C
湿度 50%
気圧 1020 hPa
視程10km以上
高度3000ftの雲はほとんどない

METAR: RJSS 182300Z 00000KT 9999 FEW030 M01/M10 Q1020

時間: 08:44 (23:44 UTC)

予報

当レポートは39分前の23:05(UTC)に作成
予報は19日の 00時(UTC)から 20日の 06時(UTC)まで有効
西/北西の風 4kt
視程10km以上
高度2000ftの雲はほとんどない
高度4000ftの千切れ雲あり
19日の 00時(UTC)から 19日の 02時(UTC)まで徐々に
西/北西の風 15kt
19日の 02時(UTC)から 19日の 07時(UTC)まで一時的に
西/北西の風 15kt、最大25ktの突風を伴う
19日の 09時(UTC)から 19日の 11時(UTC)まで徐々に
南西の風 4kt
20日の 00時(UTC)から 20日の 03時(UTC)まで徐々に
西/北西の風 13kt

TAF: RJSS 182305Z 1900/2006 29004KT 9999 FEW020 BKN040 BECMG 1900/1902 29015KT TEMPO 1902/1907 29015G25KT BECMG 1909/1911 23004KT BECMG 2000/2003 29013KT

4,000以上の空港の気象観測と天気予報(METAR報とTAF報)

利用可能な観測所は地図上に黄色い丸と赤い丸で示す。

丸の上にカーソルを重ねると観測所名を参照できる。

次にクリックすると気象観測と天気予報を参照できる。

マップの切り替え:黒色「×」印の緑ボタンをクリックして拡大、「-」印の緑ボタンをクリックして縮小、緑色の三角印をクリックして隣りの地図に切り替え


METAR-TAF: